sensor_id;sensor_type;location;lat;lon;timestamp;pressure;altitude;pressure_sealevel;temperature;humidity
61014;BME280;46899;47.542;19.082;2022-09-27T00:00:19;99309.16;;;11.80;100.00
61014;BME280;46899;47.542;19.082;2022-09-27T00:03:22;99303.38;;;11.75;100.00
61014;BME280;46899;47.542;19.082;2022-09-27T00:06:28;99299.44;;;11.68;100.00
61014;BME280;46899;47.542;19.082;2022-09-27T00:09:31;99302.25;;;11.63;100.00
61014;BME280;46899;47.542;19.082;2022-09-27T00:12:34;99299.13;;;11.56;100.00
61014;BME280;46899;47.542;19.082;2022-09-27T00:15:37;99302.94;;;11.51;100.00
61014;BME280;46899;47.542;19.082;2022-09-27T00:18:39;99295.28;;;11.48;100.00
61014;BME280;46899;47.542;19.082;2022-09-27T00:21:42;99294.69;;;11.43;100.00
61014;BME280;46899;47.542;19.082;2022-09-27T00:24:44;99286.13;;;11.41;100.00
61014;BME280;46899;47.542;19.082;2022-09-27T00:27:47;99292.03;;;11.44;100.00
61014;BME280;46899;47.542;19.082;2022-09-27T00:30:51;99285.47;;;11.53;100.00
61014;BME280;46899;47.542;19.082;2022-09-27T00:33:54;99278.59;;;11.68;100.00
61014;BME280;46899;47.542;19.082;2022-09-27T00:36:57;99281.84;;;11.71;100.00
61014;BME280;46899;47.542;19.082;2022-09-27T00:40:00;99274.97;;;11.70;100.00
61014;BME280;46899;47.542;19.082;2022-09-27T00:43:02;99267.91;;;11.72;100.00
61014;BME280;46899;47.542;19.082;2022-09-27T00:46:04;99265.88;;;11.77;100.00
61014;BME280;46899;47.542;19.082;2022-09-27T00:49:41;99264.09;;;11.78;100.00
61014;BME280;46899;47.542;19.082;2022-09-27T00:52:55;99264.28;;;11.75;100.00
61014;BME280;46899;47.542;19.082;2022-09-27T00:56:02;99260.81;;;11.74;100.00
61014;BME280;46899;47.542;19.082;2022-09-27T00:59:11;99264.94;;;11.78;100.00
61014;BME280;46899;47.542;19.082;2022-09-27T01:02:15;99265.28;;;11.72;100.00
61014;BME280;46899;47.542;19.082;2022-09-27T01:05:18;99265.28;;;11.72;100.00
61014;BME280;46899;47.542;19.082;2022-09-27T01:08:22;99253.09;;;11.73;100.00
61014;BME280;46899;47.542;19.082;2022-09-27T01:14:59;99249.97;;;11.82;100.00
61014;BME280;46899;47.542;19.082;2022-09-27T01:21:30;99250.88;;;11.81;100.00
61014;BME280;46899;47.542;19.082;2022-09-27T01:31:07;99240.03;;;11.88;100.00
61014;BME280;46899;47.542;19.082;2022-09-27T01:37:42;99234.62;;;11.91;100.00
61014;BME280;46899;47.542;19.082;2022-09-27T01:40:56;99227.84;;;11.89;100.00
61014;BME280;46899;47.542;19.082;2022-09-27T01:44:18;99224.66;;;11.84;100.00
61014;BME280;46899;47.542;19.082;2022-09-27T01:47:23;99219.78;;;11.78;100.00
61014;BME280;46899;47.542;19.082;2022-09-27T01:50:32;99217.44;;;11.73;100.00
61014;BME280;46899;47.542;19.082;2022-09-27T01:53:36;99214.28;;;11.68;100.00
61014;BME280;46899;47.542;19.082;2022-09-27T01:56:45;99202.31;;;11.64;100.00
61014;BME280;46899;47.542;19.082;2022-09-27T01:59:57;99199.97;;;11.59;100.00
61014;BME280;46899;47.542;19.082;2022-09-27T02:03:15;99192.31;;;11.56;100.00
61014;BME280;46899;47.542;19.082;2022-09-27T02:06:23;99189.97;;;11.52;100.00
61014;BME280;46899;47.542;19.082;2022-09-27T02:09:30;99180.84;;;11.45;100.00
61014;BME280;46899;47.542;19.082;2022-09-27T02:12:37;99180.47;;;11.37;100.00
61014;BME280;46899;47.542;19.082;2022-09-27T02:15:54;99175.69;;;11.29;100.00
61014;BME280;46899;47.542;19.082;2022-09-27T02:19:03;99177.03;;;11.21;100.00
61014;BME280;46899;47.542;19.082;2022-09-27T02:31:26;99195.88;;;10.94;100.00
61014;BME280;46899;47.542;19.082;2022-09-27T02:34:30;99182.28;;;10.89;100.00
61014;BME280;46899;47.542;19.082;2022-09-27T02:37:35;99187.78;;;10.83;100.00
61014;BME280;46899;47.542;19.082;2022-09-27T02:40:42;99186.13;;;10.82;100.00
61014;BME280;46899;47.542;19.082;2022-09-27T02:43:47;99189.84;;;10.78;100.00
61014;BME280;46899;47.542;19.082;2022-09-27T02:59:21;99178.50;;;10.95;100.00
61014;BME280;46899;47.542;19.082;2022-09-27T03:02:32;99178.31;;;10.98;100.00
61014;BME280;46899;47.542;19.082;2022-09-27T03:05:53;99171.94;;;11.04;100.00
61014;BME280;46899;47.542;19.082;2022-09-27T03:08:56;99165.31;;;11.14;100.00
61014;BME280;46899;47.542;19.082;2022-09-27T03:11:59;99160.69;;;11.19;100.00
61014;BME280;46899;47.542;19.082;2022-09-27T03:15:02;99155.75;;;11.28;100.00
61014;BME280;46899;47.542;19.082;2022-09-27T03:18:06;99152.12;;;11.31;100.00
61014;BME280;46899;47.542;19.082;2022-09-27T03:21:15;99159.62;;;11.37;100.00
61014;BME280;46899;47.542;19.082;2022-09-27T03:24:17;99160.19;;;11.42;100.00
61014;BME280;46899;47.542;19.082;2022-09-27T03:27:19;99161.78;;;11.44;100.00
61014;BME280;46899;47.542;19.082;2022-09-27T03:30:22;99157.41;;;11.45;100.00
61014;BME280;46899;47.542;19.082;2022-09-27T03:33:25;99160.59;;;11.50;100.00
61014;BME280;46899;47.542;19.082;2022-09-27T03:36:27;99155.78;;;11.58;100.00
61014;BME280;46899;47.542;19.082;2022-09-27T03:39:30;99151.88;;;11.65;100.00
61014;BME280;46899;47.542;19.082;2022-09-27T03:42:32;99150.72;;;11.71;100.00
61014;BME280;46899;47.542;19.082;2022-09-27T03:45:35;99152.97;;;11.77;100.00
61014;BME280;46899;47.542;19.082;2022-09-27T03:48:38;99147.94;;;11.74;100.00
61014;BME280;46899;47.542;19.082;2022-09-27T03:51:40;99139.00;;;11.78;100.00
61014;BME280;46899;47.542;19.082;2022-09-27T03:54:44;99143.28;;;11.79;100.00
61014;BME280;46899;47.542;19.082;2022-09-27T03:57:49;99140.78;;;11.77;100.00
61014;BME280;46899;47.542;19.082;2022-09-27T04:00:52;99142.81;;;11.72;100.00
61014;BME280;46899;47.542;19.082;2022-09-27T04:03:54;99137.34;;;11.77;100.00
61014;BME280;46899;47.542;19.082;2022-09-27T04:06:57;99141.59;;;11.78;100.00
61014;BME280;46899;47.542;19.082;2022-09-27T04:10:01;99137.91;;;11.82;100.00
61014;BME280;46899;47.542;19.082;2022-09-27T04:13:04;99132.97;;;11.77;100.00
61014;BME280;46899;47.542;19.082;2022-09-27T04:16:07;99138.44;;;11.73;100.00
61014;BME280;46899;47.542;19.082;2022-09-27T04:19:10;99141.22;;;11.70;100.00
61014;BME280;46899;47.542;19.082;2022-09-27T04:22:13;99139.47;;;11.70;100.00
61014;BME280;46899;47.542;19.082;2022-09-27T04:25:17;99146.00;;;11.77;100.00
61014;BME280;46899;47.542;19.082;2022-09-27T04:28:21;99138.91;;;11.79;100.00
61014;BME280;46899;47.542;19.082;2022-09-27T04:31:23;99135.38;;;11.80;100.00
61014;BME280;46899;47.542;19.082;2022-09-27T04:34:26;99126.47;;;11.84;100.00
61014;BME280;46899;47.542;19.082;2022-09-27T04:37:48;99119.38;;;11.86;100.00
61014;BME280;46899;47.542;19.082;2022-09-27T04:40:50;99119.38;;;11.86;100.00
61014;BME280;46899;47.542;19.082;2022-09-27T04:43:53;99125.72;;;11.82;100.00
61014;BME280;46899;47.542;19.082;2022-09-27T04:47:00;99126.25;;;11.87;100.00
61014;BME280;46899;47.542;19.082;2022-09-27T04:50:03;99114.16;;;11.86;100.00
61014;BME280;46899;47.542;19.082;2022-09-27T04:53:06;99117.34;;;11.91;100.00
61014;BME280;46899;47.542;19.082;2022-09-27T04:56:08;99122.34;;;11.94;100.00
61014;BME280;46899;47.542;19.082;2022-09-27T04:59:11;99114.34;;;11.97;100.00
61014;BME280;46899;47.542;19.082;2022-09-27T05:02:14;99126.38;;;12.00;100.00
61014;BME280;46899;47.542;19.082;2022-09-27T05:05:17;99118.94;;;11.94;100.00
61014;BME280;46899;47.542;19.082;2022-09-27T05:08:20;99111.91;;;11.94;100.00
61014;BME280;46899;47.542;19.082;2022-09-27T05:11:28;99112.88;;;11.93;100.00
61014;BME280;46899;47.542;19.082;2022-09-27T05:14:32;99111.13;;;11.94;100.00
61014;BME280;46899;47.542;19.082;2022-09-27T05:17:36;99095.75;;;11.89;100.00
61014;BME280;46899;47.542;19.082;2022-09-27T05:20:52;99094.91;;;11.89;100.00
61014;BME280;46899;47.542;19.082;2022-09-27T05:23:55;99105.41;;;11.87;100.00
61014;BME280;46899;47.542;19.082;2022-09-27T05:26:58;99106.53;;;11.97;100.00
61014;BME280;46899;47.542;19.082;2022-09-27T05:30:01;99111.19;;;12.06;100.00
61014;BME280;46899;47.542;19.082;2022-09-27T05:33:04;99096.56;;;12.18;100.00
61014;BME280;46899;47.542;19.082;2022-09-27T05:36:08;99093.66;;;12.22;100.00
61014;BME280;46899;47.542;19.082;2022-09-27T05:39:11;99097.78;;;12.26;100.00
61014;BME280;46899;47.542;19.082;2022-09-27T05:42:14;99086.94;;;12.32;100.00
61014;BME280;46899;47.542;19.082;2022-09-27T05:45:16;99073.44;;;12.40;100.00
61014;BME280;46899;47.542;19.082;2022-09-27T05:48:19;99073.69;;;12.50;100.00
61014;BME280;46899;47.542;19.082;2022-09-27T05:51:26;99070.31;;;12.62;100.00
61014;BME280;46899;47.542;19.082;2022-09-27T05:54:29;99070.34;;;12.48;100.00
61014;BME280;46899;47.542;19.082;2022-09-27T05:57:32;99061.22;;;12.55;100.00
61014;BME280;46899;47.542;19.082;2022-09-27T06:00:37;99062.69;;;12.59;100.00
61014;BME280;46899;47.542;19.082;2022-09-27T06:03:41;99060.75;;;12.48;100.00
61014;BME280;46899;47.542;19.082;2022-09-27T06:06:45;99072.28;;;12.58;100.00
61014;BME280;46899;47.542;19.082;2022-09-27T06:09:51;99087.00;;;12.59;100.00
61014;BME280;46899;47.542;19.082;2022-09-27T06:12:57;99093.84;;;12.48;100.00
61014;BME280;46899;47.542;19.082;2022-09-27T06:16:02;99099.22;;;12.59;100.00
61014;BME280;46899;47.542;19.082;2022-09-27T06:19:04;99086.00;;;12.74;100.00
61014;BME280;46899;47.542;19.082;2022-09-27T06:22:07;99097.16;;;12.64;100.00
61014;BME280;46899;47.542;19.082;2022-09-27T06:25:10;99089.47;;;12.75;100.00
61014;BME280;46899;47.542;19.082;2022-09-27T06:28:14;99089.66;;;12.72;100.00
61014;BME280;46899;47.542;19.082;2022-09-27T06:31:17;99084.00;;;12.92;100.00
61014;BME280;46899;47.542;19.082;2022-09-27T06:34:21;99081.84;;;12.98;100.00
61014;BME280;46899;47.542;19.082;2022-09-27T06:37:26;99082.88;;;12.96;100.00
61014;BME280;46899;47.542;19.082;2022-09-27T06:40:29;99087.72;;;13.02;100.00
61014;BME280;46899;47.542;19.082;2022-09-27T06:43:32;99088.63;;;13.01;100.00
61014;BME280;46899;47.542;19.082;2022-09-27T06:46:36;99086.59;;;13.06;100.00
61014;BME280;46899;47.542;19.082;2022-09-27T06:49:39;99087.44;;;13.19;100.00
61014;BME280;46899;47.542;19.082;2022-09-27T06:52:45;99077.88;;;13.32;100.00
61014;BME280;46899;47.542;19.082;2022-09-27T06:55:48;99079.69;;;13.44;100.00
61014;BME280;46899;47.542;19.082;2022-09-27T06:58:51;99075.91;;;13.48;100.00
61014;BME280;46899;47.542;19.082;2022-09-27T07:02:14;99068.91;;;13.36;100.00
61014;BME280;46899;47.542;19.082;2022-09-27T07:05:18;99070.69;;;13.48;100.00
61014;BME280;46899;47.542;19.082;2022-09-27T07:08:21;99074.13;;;13.61;100.00
61014;BME280;46899;47.542;19.082;2022-09-27T07:11:24;99080.75;;;13.80;100.00
61014;BME280;46899;47.542;19.082;2022-09-27T07:14:27;99092.97;;;13.66;100.00
61014;BME280;46899;47.542;19.082;2022-09-27T07:17:30;99097.88;;;13.58;100.00
61014;BME280;46899;47.542;19.082;2022-09-27T07:20:32;99109.37;;;13.68;100.00
61014;BME280;46899;47.542;19.082;2022-09-27T07:23:38;99102.72;;;13.77;100.00
61014;BME280;46899;47.542;19.082;2022-09-27T07:26:41;99109.00;;;13.87;100.00
61014;BME280;46899;47.542;19.082;2022-09-27T07:29:44;99089.94;;;13.98;100.00
61014;BME280;46899;47.542;19.082;2022-09-27T07:32:46;99088.88;;;14.38;100.00
61014;BME280;46899;47.542;19.082;2022-09-27T07:35:49;99090.81;;;15.07;100.00
61014;BME280;46899;47.542;19.082;2022-09-27T07:38:52;99097.03;;;15.98;100.00
61014;BME280;46899;47.542;19.082;2022-09-27T07:41:58;99097.88;;;16.31;100.00
61014;BME280;46899;47.542;19.082;2022-09-27T07:45:01;99098.12;;;16.28;100.00
61014;BME280;46899;47.542;19.082;2022-09-27T07:48:14;99094.75;;;16.37;100.00
61014;BME280;46899;47.542;19.082;2022-09-27T07:51:17;99085.94;;;16.38;100.00
61014;BME280;46899;47.542;19.082;2022-09-27T07:54:20;99082.09;;;16.76;100.00
61014;BME280;46899;47.542;19.082;2022-09-27T07:57:22;99086.66;;;17.05;100.00
61014;BME280;46899;47.542;19.082;2022-09-27T08:00:25;99077.72;;;16.97;100.00
61014;BME280;46899;47.542;19.082;2022-09-27T08:03:28;99079.88;;;16.92;100.00
61014;BME280;46899;47.542;19.082;2022-09-27T08:06:32;99083.41;;;17.13;98.47
61014;BME280;46899;47.542;19.082;2022-09-27T08:09:36;99077.91;;;17.16;99.11
61014;BME280;46899;47.542;19.082;2022-09-27T08:12:38;99086.31;;;16.99;100.00
61014;BME280;46899;47.542;19.082;2022-09-27T08:15:41;99070.44;;;16.58;100.00
61014;BME280;46899;47.542;19.082;2022-09-27T08:18:43;99058.34;;;16.66;100.00
61014;BME280;46899;47.542;19.082;2022-09-27T08:21:46;99059.41;;;17.06;100.00
61014;BME280;46899;47.542;19.082;2022-09-27T08:24:49;99049.63;;;17.29;98.41
61014;BME280;46899;47.542;19.082;2022-09-27T08:27:56;99060.81;;;17.63;94.83
61014;BME280;46899;47.542;19.082;2022-09-27T08:31:00;99079.06;;;17.23;95.85
61014;BME280;46899;47.542;19.082;2022-09-27T08:34:03;99085.78;;;17.16;98.88
61014;BME280;46899;47.542;19.082;2022-09-27T08:37:06;99078.44;;;16.99;100.00
61014;BME280;46899;47.542;19.082;2022-09-27T08:40:09;99070.22;;;16.92;100.00
61014;BME280;46899;47.542;19.082;2022-09-27T08:46:22;99064.25;;;16.90;99.79
61014;BME280;46899;47.542;19.082;2022-09-27T08:49:32;99057.28;;;17.00;100.00
61014;BME280;46899;47.542;19.082;2022-09-27T08:52:38;99054.66;;;16.69;100.00
61014;BME280;46899;47.542;19.082;2022-09-27T08:55:48;99045.50;;;16.52;100.00
61014;BME280;46899;47.542;19.082;2022-09-27T09:02:28;99048.31;;;16.49;100.00
61014;BME280;46899;47.542;19.082;2022-09-27T09:05:32;99053.16;;;16.87;100.00
61014;BME280;46899;47.542;19.082;2022-09-27T09:08:58;99063.03;;;16.94;100.00
61014;BME280;46899;47.542;19.082;2022-09-27T09:12:02;99062.72;;;16.88;100.00
61014;BME280;46899;47.542;19.082;2022-09-27T09:22:03;99044.19;;;16.24;100.00
61014;BME280;46899;47.542;19.082;2022-09-27T09:25:22;99033.09;;;16.21;100.00
61014;BME280;46899;47.542;19.082;2022-09-27T09:34:58;99017.59;;;16.18;100.00
61014;BME280;46899;47.542;19.082;2022-09-27T09:38:03;99011.22;;;16.54;100.00
61014;BME280;46899;47.542;19.082;2022-09-27T09:41:15;99005.31;;;16.29;100.00
61014;BME280;46899;47.542;19.082;2022-09-27T09:44:23;99002.28;;;16.45;100.00
61014;BME280;46899;47.542;19.082;2022-09-27T09:51:09;98993.19;;;15.84;100.00
61014;BME280;46899;47.542;19.082;2022-09-27T09:54:07;98998.66;;;15.70;100.00
61014;BME280;46899;47.542;19.082;2022-09-27T09:57:17;99006.75;;;15.67;100.00
61014;BME280;46899;47.542;19.082;2022-09-27T10:00:23;98998.41;;;15.62;100.00
61014;BME280;46899;47.542;19.082;2022-09-27T10:03:26;98999.06;;;15.42;100.00
61014;BME280;46899;47.542;19.082;2022-09-27T10:06:28;98994.75;;;15.30;100.00
61014;BME280;46899;47.542;19.082;2022-09-27T10:09:32;98992.12;;;15.19;100.00
61014;BME280;46899;47.542;19.082;2022-09-27T10:12:38;98991.97;;;15.09;100.00
61014;BME280;46899;47.542;19.082;2022-09-27T10:15:41;98985.38;;;14.92;100.00
61014;BME280;46899;47.542;19.082;2022-09-27T10:18:45;98984.41;;;14.93;100.00
61014;BME280;46899;47.542;19.082;2022-09-27T10:21:51;98984.66;;;14.90;100.00
61014;BME280;46899;47.542;19.082;2022-09-27T10:24:55;98981.09;;;14.91;100.00
61014;BME280;46899;47.542;19.082;2022-09-27T10:27:58;98982.97;;;14.89;100.00
61014;BME280;46899;47.542;19.082;2022-09-27T10:31:07;98971.56;;;14.90;100.00
61014;BME280;46899;47.542;19.082;2022-09-27T10:34:16;98967.50;;;14.86;100.00
61014;BME280;46899;47.542;19.082;2022-09-27T10:37:20;98971.16;;;14.84;100.00
61014;BME280;46899;47.542;19.082;2022-09-27T10:40:27;98972.28;;;14.92;100.00
61014;BME280;46899;47.542;19.082;2022-09-27T10:43:32;98967.53;;;14.97;100.00
61014;BME280;46899;47.542;19.082;2022-09-27T10:46:36;98966.84;;;15.06;100.00
61014;BME280;46899;47.542;19.082;2022-09-27T10:49:40;98964.00;;;15.10;100.00
61014;BME280;46899;47.542;19.082;2022-09-27T10:52:44;98959.72;;;15.20;100.00
61014;BME280;46899;47.542;19.082;2022-09-27T10:55:47;98953.69;;;15.30;100.00
61014;BME280;46899;47.542;19.082;2022-09-27T10:58:51;98955.03;;;15.47;100.00
61014;BME280;46899;47.542;19.082;2022-09-27T11:01:54;98953.81;;;15.40;100.00
61014;BME280;46899;47.542;19.082;2022-09-27T11:05:11;98950.56;;;15.36;100.00
61014;BME280;46899;47.542;19.082;2022-09-27T11:11:25;98949.28;;;15.31;100.00
61014;BME280;46899;47.542;19.082;2022-09-27T11:14:28;98937.94;;;15.30;100.00
61014;BME280;46899;47.542;19.082;2022-09-27T11:20:58;98941.16;;;15.34;100.00
61014;BME280;46899;47.542;19.082;2022-09-27T11:24:11;98938.16;;;15.27;100.00
61014;BME280;46899;47.542;19.082;2022-09-27T11:30:26;98925.19;;;15.26;100.00
61014;BME280;46899;47.542;19.082;2022-09-27T11:33:41;98922.94;;;15.43;100.00
61014;BME280;46899;47.542;19.082;2022-09-27T11:40:47;98915.19;;;15.86;100.00
61014;BME280;46899;47.542;19.082;2022-09-27T11:43:29;98907.56;;;15.94;100.00
61014;BME280;46899;47.542;19.082;2022-09-27T11:46:34;98912.25;;;16.22;100.00
61014;BME280;46899;47.542;19.082;2022-09-27T11:59:48;98888.41;;;16.78;100.00
61014;BME280;46899;47.542;19.082;2022-09-27T12:09:10;98874.63;;;16.65;100.00
61014;BME280;46899;47.542;19.082;2022-09-27T12:12:32;98871.94;;;16.55;100.00
61014;BME280;46899;47.542;19.082;2022-09-27T12:15:38;98868.59;;;16.53;100.00
61014;BME280;46899;47.542;19.082;2022-09-27T12:18:44;98863.34;;;16.53;100.00
61014;BME280;46899;47.542;19.082;2022-09-27T12:21:54;98857.13;;;16.54;100.00
61014;BME280;46899;47.542;19.082;2022-09-27T12:24:58;98852.91;;;16.63;100.00
61014;BME280;46899;47.542;19.082;2022-09-27T12:28:07;98853.91;;;16.92;100.00
61014;BME280;46899;47.542;19.082;2022-09-27T12:31:16;98844.53;;;16.99;100.00
61014;BME280;46899;47.542;19.082;2022-09-27T12:37:44;98834.16;;;17.28;100.00
61014;BME280;46899;47.542;19.082;2022-09-27T12:40:51;98832.16;;;17.50;100.00
61014;BME280;46899;47.542;19.082;2022-09-27T12:43:59;98847.56;;;17.55;100.00
61014;BME280;46899;47.542;19.082;2022-09-27T12:53:31;98822.63;;;16.89;100.00
61014;BME280;46899;47.542;19.082;2022-09-27T13:02:59;98815.47;;;16.29;100.00
61014;BME280;46899;47.542;19.082;2022-09-27T13:12:39;98812.59;;;16.32;100.00
61014;BME280;46899;47.542;19.082;2022-09-27T13:15:43;98804.50;;;16.56;100.00
61014;BME280;46899;47.542;19.082;2022-09-27T13:21:53;98804.22;;;16.06;100.00
61014;BME280;46899;47.542;19.082;2022-09-27T13:24:57;98803.63;;;15.82;100.00
61014;BME280;46899;47.542;19.082;2022-09-27T13:28:01;98808.38;;;15.77;100.00
61014;BME280;46899;47.542;19.082;2022-09-27T13:31:05;98797.06;;;15.77;100.00
61014;BME280;46899;47.542;19.082;2022-09-27T13:34:36;98798.34;;;16.14;100.00
61014;BME280;46899;47.542;19.082;2022-09-27T13:40:38;98787.69;;;16.68;100.00
61014;BME280;46899;47.542;19.082;2022-09-27T13:43:48;98789.00;;;16.83;100.00
61014;BME280;46899;47.542;19.082;2022-09-27T13:46:57;98785.78;;;16.70;100.00
61014;BME280;46899;47.542;19.082;2022-09-27T13:50:15;98789.34;;;16.69;100.00
61014;BME280;46899;47.542;19.082;2022-09-27T13:53:30;98783.50;;;16.65;100.00
61014;BME280;46899;47.542;19.082;2022-09-27T13:59:48;98762.47;;;16.56;100.00
61014;BME280;46899;47.542;19.082;2022-09-27T14:06:08;98765.81;;;16.47;100.00
61014;BME280;46899;47.542;19.082;2022-09-27T14:09:19;98772.25;;;16.33;100.00
61014;BME280;46899;47.542;19.082;2022-09-27T14:12:24;98758.59;;;16.18;100.00
61014;BME280;46899;47.542;19.082;2022-09-27T14:15:30;98777.66;;;16.20;100.00
61014;BME280;46899;47.542;19.082;2022-09-27T14:18:33;98802.31;;;16.08;100.00
61014;BME280;46899;47.542;19.082;2022-09-27T14:21:39;98835.50;;;15.55;100.00
61014;BME280;46899;47.542;19.082;2022-09-27T14:24:43;98843.09;;;14.81;100.00
61014;BME280;46899;47.542;19.082;2022-09-27T14:27:47;98843.72;;;14.15;100.00
61014;BME280;46899;47.542;19.082;2022-09-27T14:34:13;98851.63;;;13.42;100.00
61014;BME280;46899;47.542;19.082;2022-09-27T14:37:19;98851.53;;;13.31;100.00
61014;BME280;46899;47.542;19.082;2022-09-27T14:40:26;98844.84;;;13.27;100.00
61014;BME280;46899;47.542;19.082;2022-09-27T14:43:29;98847.69;;;13.24;100.00
61014;BME280;46899;47.542;19.082;2022-09-27T14:46:34;98855.44;;;13.13;100.00
61014;BME280;46899;47.542;19.082;2022-09-27T14:49:44;98858.13;;;12.99;100.00
61014;BME280;46899;47.542;19.082;2022-09-27T14:52:47;98861.25;;;13.04;100.00
61014;BME280;46899;47.542;19.082;2022-09-27T14:55:51;98858.56;;;13.06;100.00
61014;BME280;46899;47.542;19.082;2022-09-27T14:59:01;98863.69;;;13.07;100.00
61014;BME280;46899;47.542;19.082;2022-09-27T15:02:10;98864.19;;;13.12;100.00
61014;BME280;46899;47.542;19.082;2022-09-27T15:05:17;98867.97;;;13.21;100.00
61014;BME280;46899;47.542;19.082;2022-09-27T15:08:21;98864.19;;;13.12;100.00
61014;BME280;46899;47.542;19.082;2022-09-27T15:11:24;98867.25;;;13.19;100.00
61014;BME280;46899;47.542;19.082;2022-09-27T15:14:28;98861.25;;;13.29;100.00
61014;BME280;46899;47.542;19.082;2022-09-27T15:17:40;98858.50;;;13.43;100.00
61014;BME280;46899;47.542;19.082;2022-09-27T15:20:51;98869.16;;;13.40;100.00
61014;BME280;46899;47.542;19.082;2022-09-27T15:23:54;98872.22;;;13.34;100.00
61014;BME280;46899;47.542;19.082;2022-09-27T15:27:00;98874.13;;;13.32;100.00
61014;BME280;46899;47.542;19.082;2022-09-27T15:30:03;98875.81;;;13.21;100.00
61014;BME280;46899;47.542;19.082;2022-09-27T15:33:16;98870.19;;;13.14;100.00
61014;BME280;46899;47.542;19.082;2022-09-27T15:36:40;98876.84;;;12.93;100.00
61014;BME280;46899;47.542;19.082;2022-09-27T15:39:42;98884.97;;;12.76;100.00
61014;BME280;46899;47.542;19.082;2022-09-27T15:42:57;98893.06;;;12.59;100.00
61014;BME280;46899;47.542;19.082;2022-09-27T15:46:01;98900.44;;;12.40;100.00
61014;BME280;46899;47.542;19.082;2022-09-27T15:53:00;98907.22;;;12.15;100.00
61014;BME280;46899;47.542;19.082;2022-09-27T15:55:56;98916.38;;;12.08;100.00
61014;BME280;46899;47.542;19.082;2022-09-27T15:58:59;98914.38;;;11.99;100.00
61014;BME280;46899;47.542;19.082;2022-09-27T16:02:05;98920.06;;;11.92;100.00
61014;BME280;46899;47.542;19.082;2022-09-27T16:05:11;98922.97;;;11.87;100.00
61014;BME280;46899;47.542;19.082;2022-09-27T16:08:14;98927.44;;;11.85;100.00
61014;BME280;46899;47.542;19.082;2022-09-27T16:11:16;98921.94;;;11.90;100.00
61014;BME280;46899;47.542;19.082;2022-09-27T16:14:19;98925.56;;;11.87;100.00
61014;BME280;46899;47.542;19.082;2022-09-27T16:17:21;98919.19;;;11.79;100.00
61014;BME280;46899;47.542;19.082;2022-09-27T16:20:24;98926.53;;;11.72;100.00
61014;BME280;46899;47.542;19.082;2022-09-27T16:23:28;98932.09;;;11.66;100.00
61014;BME280;46899;47.542;19.082;2022-09-27T16:26:30;98933.03;;;11.65;100.00
61014;BME280;46899;47.542;19.082;2022-09-27T16:29:33;98944.78;;;11.72;100.00
61014;BME280;46899;47.542;19.082;2022-09-27T16:32:39;98942.06;;;11.74;100.00
61014;BME280;46899;47.542;19.082;2022-09-27T16:35:42;98942.44;;;11.82;100.00
61014;BME280;46899;47.542;19.082;2022-09-27T16:38:51;98939.84;;;11.82;100.00
61014;BME280;46899;47.542;19.082;2022-09-27T16:41:54;98948.56;;;11.81;100.00
61014;BME280;46899;47.542;19.082;2022-09-27T16:44:56;98940.87;;;11.79;100.00
61014;BME280;46899;47.542;19.082;2022-09-27T16:47:59;98945.22;;;11.79;100.00
61014;BME280;46899;47.542;19.082;2022-09-27T16:51:06;98949.25;;;11.84;100.00
61014;BME280;46899;47.542;19.082;2022-09-27T16:54:27;98949.03;;;11.87;100.00
61014;BME280;46899;47.542;19.082;2022-09-27T16:57:30;98963.28;;;11.82;100.00
61014;BME280;46899;47.542;19.082;2022-09-27T17:00:34;98968.06;;;11.75;100.00
61014;BME280;46899;47.542;19.082;2022-09-27T17:03:37;98970.38;;;11.80;100.00
61014;BME280;46899;47.542;19.082;2022-09-27T17:06:39;98977.25;;;11.81;100.00
61014;BME280;46899;47.542;19.082;2022-09-27T17:09:42;98984.59;;;11.88;100.00
61014;BME280;46899;47.542;19.082;2022-09-27T17:12:45;98981.06;;;11.89;100.00
61014;BME280;46899;47.542;19.082;2022-09-27T17:15:48;98982.16;;;11.85;100.00
61014;BME280;46899;47.542;19.082;2022-09-27T17:18:51;98984.88;;;11.84;100.00
61014;BME280;46899;47.542;19.082;2022-09-27T17:21:53;98988.41;;;11.83;100.00
61014;BME280;46899;47.542;19.082;2022-09-27T17:24:59;98991.00;;;11.83;100.00
61014;BME280;46899;47.542;19.082;2022-09-27T17:28:01;98979.66;;;11.84;100.00
61014;BME280;46899;47.542;19.082;2022-09-27T17:31:04;98988.03;;;11.89;100.00
61014;BME280;46899;47.542;19.082;2022-09-27T17:34:10;98991.38;;;11.91;100.00
61014;BME280;46899;47.542;19.082;2022-09-27T17:37:13;99000.97;;;11.90;100.00
61014;BME280;46899;47.542;19.082;2022-09-27T17:40:16;99005.16;;;11.93;100.00
61014;BME280;46899;47.542;19.082;2022-09-27T17:43:19;99007.66;;;11.94;100.00
61014;BME280;46899;47.542;19.082;2022-09-27T17:46:23;99000.34;;;11.87;100.00
61014;BME280;46899;47.542;19.082;2022-09-27T17:49:26;99000.22;;;11.88;100.00
61014;BME280;46899;47.542;19.082;2022-09-27T17:52:47;98995.56;;;11.93;100.00
61014;BME280;46899;47.542;19.082;2022-09-27T17:55:50;99001.63;;;11.94;100.00
61014;BME280;46899;47.542;19.082;2022-09-27T17:58:55;98997.53;;;11.90;100.00
61014;BME280;46899;47.542;19.082;2022-09-27T18:01:58;99005.72;;;11.84;100.00
61014;BME280;46899;47.542;19.082;2022-09-27T18:05:01;99011.78;;;11.84;100.00
61014;BME280;46899;47.542;19.082;2022-09-27T18:08:03;99008.50;;;11.81;100.00
61014;BME280;46899;47.542;19.082;2022-09-27T18:11:10;99010.66;;;11.88;100.00